sensor_id;sensor_type;location;lat;lon;timestamp;pressure;altitude;pressure_sealevel;temperature;humidity
9077;BME280;4574;51.072;17.174;2023-02-17T00:00:05;100682.25;;;4.41;100.00
9077;BME280;4574;51.072;17.174;2023-02-17T00:02:34;100675.44;;;4.39;100.00
9077;BME280;4574;51.072;17.174;2023-02-17T00:05:05;100675.53;;;4.37;100.00
9077;BME280;4574;51.072;17.174;2023-02-17T00:07:34;100674.03;;;4.33;100.00
9077;BME280;4574;51.072;17.174;2023-02-17T00:10:02;100673.84;;;4.36;100.00
9077;BME280;4574;51.072;17.174;2023-02-17T00:12:31;100670.28;;;4.37;100.00
9077;BME280;4574;51.072;17.174;2023-02-17T00:14:59;100671.91;;;4.40;100.00
9077;BME280;4574;51.072;17.174;2023-02-17T00:17:28;100661.50;;;4.38;100.00
9077;BME280;4574;51.072;17.174;2023-02-17T00:19:56;100664.84;;;4.40;100.00
9077;BME280;4574;51.072;17.174;2023-02-17T00:22:26;100672.16;;;4.35;100.00
9077;BME280;4574;51.072;17.174;2023-02-17T00:24:55;100672.28;;;4.34;100.00
9077;BME280;4574;51.072;17.174;2023-02-17T00:27:23;100664.50;;;4.32;100.00
9077;BME280;4574;51.072;17.174;2023-02-17T00:29:51;100668.81;;;4.33;100.00
9077;BME280;4574;51.072;17.174;2023-02-17T00:32:20;100668.81;;;4.33;100.00
9077;BME280;4574;51.072;17.174;2023-02-17T00:34:50;100665.44;;;4.31;100.00
9077;BME280;4574;51.072;17.174;2023-02-17T00:37:19;100665.44;;;4.31;100.00
9077;BME280;4574;51.072;17.174;2023-02-17T00:39:49;100671.63;;;4.30;100.00
9077;BME280;4574;51.072;17.174;2023-02-17T00:42:18;100662.06;;;4.29;100.00
9077;BME280;4574;51.072;17.174;2023-02-17T00:44:46;100672.47;;;4.31;100.00
9077;BME280;4574;51.072;17.174;2023-02-17T00:47:15;100661.31;;;4.27;100.00
9077;BME280;4574;51.072;17.174;2023-02-17T00:49:43;100662.06;;;4.29;100.00
9077;BME280;4574;51.072;17.174;2023-02-17T00:52:11;100657.69;;;4.30;100.00
9077;BME280;4574;51.072;17.174;2023-02-17T00:54:40;100667.31;;;4.29;100.00
9077;BME280;4574;51.072;17.174;2023-02-17T00:57:10;100643.91;;;4.26;100.00
9077;BME280;4574;51.072;17.174;2023-02-17T00:59:38;100647.28;;;4.28;100.00
9077;BME280;4574;51.072;17.174;2023-02-17T01:02:07;100640.09;;;4.32;100.00
9077;BME280;4574;51.072;17.174;2023-02-17T01:04:35;100641.66;;;4.34;100.00
9077;BME280;4574;51.072;17.174;2023-02-17T01:07:04;100635.47;;;4.35;100.00
9077;BME280;4574;51.072;17.174;2023-02-17T01:09:32;100630.44;;;4.32;100.00
9077;BME280;4574;51.072;17.174;2023-02-17T01:12:01;100636.34;;;4.36;100.00
9077;BME280;4574;51.072;17.174;2023-02-17T01:14:31;100640.72;;;4.35;100.00
9077;BME280;4574;51.072;17.174;2023-02-17T01:16:59;100631.19;;;4.34;100.00
9077;BME280;4574;51.072;17.174;2023-02-17T01:19:27;100621.81;;;4.30;100.00
9077;BME280;4574;51.072;17.174;2023-02-17T01:21:56;100611.75;;;4.24;100.00
9077;BME280;4574;51.072;17.174;2023-02-17T01:24:24;100625.19;;;4.32;100.00
9077;BME280;4574;51.072;17.174;2023-02-17T01:26:53;100625.94;;;4.34;100.00
9077;BME280;4574;51.072;17.174;2023-02-17T01:29:21;100626.59;;;4.38;100.00
9077;BME280;4574;51.072;17.174;2023-02-17T01:31:51;100630.91;;;4.39;100.00
9077;BME280;4574;51.072;17.174;2023-02-17T01:34:20;100622.91;;;4.40;100.00
9077;BME280;4574;51.072;17.174;2023-02-17T01:36:48;100613.50;;;4.38;100.00
9077;BME280;4574;51.072;17.174;2023-02-17T01:39:17;100615.81;;;4.42;100.00
9077;BME280;4574;51.072;17.174;2023-02-17T01:41:48;100612.03;;;4.46;100.00
9077;BME280;4574;51.072;17.174;2023-02-17T01:44:18;100619.72;;;4.49;100.00
9077;BME280;4574;51.072;17.174;2023-02-17T01:46:48;100614.28;;;4.52;100.00
9077;BME280;4574;51.072;17.174;2023-02-17T01:49:25;100615.00;;;4.54;100.00
9077;BME280;4574;51.072;17.174;2023-02-17T01:51:57;100606.22;;;4.55;100.00
9077;BME280;4574;51.072;17.174;2023-02-17T01:54:30;100602.44;;;4.59;100.00
9077;BME280;4574;51.072;17.174;2023-02-17T01:57:00;100607.50;;;4.62;100.00
9077;BME280;4574;51.072;17.174;2023-02-17T01:59:30;100598.47;;;4.66;100.00
9077;BME280;4574;51.072;17.174;2023-02-17T02:02:01;100592.41;;;4.66;100.00
9077;BME280;4574;51.072;17.174;2023-02-17T02:04:37;100582.56;;;4.69;100.00
9077;BME280;4574;51.072;17.174;2023-02-17T02:07:12;100585.72;;;4.74;100.00
9077;BME280;4574;51.072;17.174;2023-02-17T02:09:46;100579.44;;;4.77;100.00
9077;BME280;4574;51.072;17.174;2023-02-17T02:12:17;100565.47;;;4.76;100.00
9077;BME280;4574;51.072;17.174;2023-02-17T02:14:47;100554.91;;;4.78;100.00
9077;BME280;4574;51.072;17.174;2023-02-17T02:17:23;100554.91;;;4.78;100.00
9077;BME280;4574;51.072;17.174;2023-02-17T02:20:17;100559.81;;;4.82;100.00
9077;BME280;4574;51.072;17.174;2023-02-17T02:23:05;100556.16;;;4.85;100.00
9077;BME280;4574;51.072;17.174;2023-02-17T02:25:59;100556.03;;;4.86;100.00
9077;BME280;4574;51.072;17.174;2023-02-17T02:28:48;100541.16;;;4.87;100.00
9077;BME280;4574;51.072;17.174;2023-02-17T02:31:36;100552.19;;;4.92;100.00
9077;BME280;4574;51.072;17.174;2023-02-17T02:34:15;100543.25;;;4.94;100.00
9077;BME280;4574;51.072;17.174;2023-02-17T02:36:52;100525.22;;;4.90;100.00
9077;BME280;4574;51.072;17.174;2023-02-17T02:39:25;100535.81;;;5.01;100.00
9077;BME280;4574;51.072;17.174;2023-02-17T02:42:01;100534.56;;;5.06;100.00
9077;BME280;4574;51.072;17.174;2023-02-17T02:44:31;100523.22;;;5.06;100.00
9077;BME280;4574;51.072;17.174;2023-02-17T02:47:01;100522.16;;;5.08;100.00
9077;BME280;4574;51.072;17.174;2023-02-17T02:49:33;100527.25;;;5.11;100.00
9077;BME280;4574;51.072;17.174;2023-02-17T02:52:05;100520.09;;;5.13;100.00
9077;BME280;4574;51.072;17.174;2023-02-17T02:54:47;100516.41;;;5.16;100.00
9077;BME280;4574;51.072;17.174;2023-02-17T02:57:33;100515.47;;;5.17;100.00
9077;BME280;4574;51.072;17.174;2023-02-17T03:00:14;100519.69;;;5.19;100.00
9077;BME280;4574;51.072;17.174;2023-02-17T03:02:47;100507.16;;;5.22;100.00
9077;BME280;4574;51.072;17.174;2023-02-17T03:05:24;100514.00;;;5.25;100.00
9077;BME280;4574;51.072;17.174;2023-02-17T03:07:58;100512.94;;;5.27;100.00
9077;BME280;4574;51.072;17.174;2023-02-17T03:10:29;100504.03;;;5.30;100.00
9077;BME280;4574;51.072;17.174;2023-02-17T03:13:00;100502.22;;;5.30;100.00
9077;BME280;4574;51.072;17.174;2023-02-17T03:15:31;100508.00;;;5.35;100.00
9077;BME280;4574;51.072;17.174;2023-02-17T03:18:01;100496.03;;;5.31;100.00
9077;BME280;4574;51.072;17.174;2023-02-17T03:20:35;100501.78;;;5.36;100.00
9077;BME280;4574;51.072;17.174;2023-02-17T03:23:05;100503.38;;;5.39;100.00
9077;BME280;4574;51.072;17.174;2023-02-17T03:25:34;100495.50;;;5.39;100.00
9077;BME280;4574;51.072;17.174;2023-02-17T03:28:03;100499.59;;;5.43;100.00
9077;BME280;4574;51.072;17.174;2023-02-17T03:30:31;100497.69;;;5.45;100.00
9077;BME280;4574;51.072;17.174;2023-02-17T03:33:00;100506.19;;;5.48;100.00
9077;BME280;4574;51.072;17.174;2023-02-17T03:35:28;100505.03;;;5.52;100.00
9077;BME280;4574;51.072;17.174;2023-02-17T03:37:58;100498.72;;;5.55;100.00
9077;BME280;4574;51.072;17.174;2023-02-17T03:40:27;100505.53;;;5.57;100.00
9077;BME280;4574;51.072;17.174;2023-02-17T03:42:55;100495.97;;;5.56;100.00
9077;BME280;4574;51.072;17.174;2023-02-17T03:45:24;100494.00;;;5.60;100.00
9077;BME280;4574;51.072;17.174;2023-02-17T03:47:52;100488.63;;;5.61;100.00
9077;BME280;4574;51.072;17.174;2023-02-17T03:50:21;100490.19;;;5.64;100.00
9077;BME280;4574;51.072;17.174;2023-02-17T03:52:49;100496.19;;;5.66;100.00
9077;BME280;4574;51.072;17.174;2023-02-17T03:55:19;100495.84;;;5.70;100.00
9077;BME280;4574;51.072;17.174;2023-02-17T03:57:48;100486.28;;;5.69;100.00
9077;BME280;4574;51.072;17.174;2023-02-17T04:00:16;100493.22;;;5.70;100.00
9077;BME280;4574;51.072;17.174;2023-02-17T04:02:45;100486.78;;;5.74;100.00
9077;BME280;4574;51.072;17.174;2023-02-17T04:05:13;100482.25;;;5.76;100.00
9077;BME280;4574;51.072;17.174;2023-02-17T04:07:42;100483.88;;;5.79;100.00
9077;BME280;4574;51.072;17.174;2023-02-17T04:10:10;100478.63;;;5.79;100.00
9077;BME280;4574;51.072;17.174;2023-02-17T04:12:40;100473.16;;;5.82;100.00
9077;BME280;4574;51.072;17.174;2023-02-17T04:15:08;100481.75;;;5.84;100.00
9077;BME280;4574;51.072;17.174;2023-02-17T04:17:37;100482.50;;;5.86;100.00
9077;BME280;4574;51.072;17.174;2023-02-17T04:20:06;100479.97;;;5.84;100.00
9077;BME280;4574;51.072;17.174;2023-02-17T04:22:35;100477.97;;;5.88;100.00
9077;BME280;4574;51.072;17.174;2023-02-17T04:25:04;100477.97;;;5.88;100.00
9077;BME280;4574;51.072;17.174;2023-02-17T04:27:32;100461.19;;;5.78;100.00
9077;BME280;4574;51.072;17.174;2023-02-17T04:30:02;100475.34;;;5.88;100.00
9077;BME280;4574;51.072;17.174;2023-02-17T04:32:31;100468.28;;;5.88;100.00
9077;BME280;4574;51.072;17.174;2023-02-17T04:35:00;100457.78;;;5.88;100.00
9077;BME280;4574;51.072;17.174;2023-02-17T04:37:28;100451.69;;;5.88;100.00
9077;BME280;4574;51.072;17.174;2023-02-17T04:39:57;100449.06;;;5.88;100.00
9077;BME280;4574;51.072;17.174;2023-02-17T04:42:26;100454.09;;;5.91;100.00
9077;BME280;4574;51.072;17.174;2023-02-17T04:44:54;100447.91;;;5.92;100.00
9077;BME280;4574;51.072;17.174;2023-02-17T04:47:24;100444.31;;;5.93;100.00
9077;BME280;4574;51.072;17.174;2023-02-17T04:49:53;100441.69;;;5.93;100.00
9077;BME280;4574;51.072;17.174;2023-02-17T04:52:21;100448.72;;;5.92;100.00
9077;BME280;4574;51.072;17.174;2023-02-17T04:54:50;100435.72;;;5.91;100.00
9077;BME280;4574;51.072;17.174;2023-02-17T04:57:18;100436.44;;;5.93;100.00
9077;BME280;4574;51.072;17.174;2023-02-17T04:59:47;100440.75;;;5.94;100.00
9077;BME280;4574;51.072;17.174;2023-02-17T05:02:15;100442.41;;;5.95;100.00
9077;BME280;4574;51.072;17.174;2023-02-17T05:04:45;100437.16;;;5.95;100.00
9077;BME280;4574;51.072;17.174;2023-02-17T05:07:14;100433.59;;;5.96;100.00
9077;BME280;4574;51.072;17.174;2023-02-17T05:09:42;100433.59;;;5.96;100.00
9077;BME280;4574;51.072;17.174;2023-02-17T05:12:11;100425.69;;;5.96;100.00
9077;BME280;4574;51.072;17.174;2023-02-17T05:14:39;100419.63;;;5.95;100.00
9077;BME280;4574;51.072;17.174;2023-02-17T05:17:08;100420.44;;;5.96;100.00
9077;BME280;4574;51.072;17.174;2023-02-17T05:19:36;100411.75;;;5.95;100.00
9077;BME280;4574;51.072;17.174;2023-02-17T05:22:06;100421.41;;;5.95;100.00
9077;BME280;4574;51.072;17.174;2023-02-17T05:24:35;100419.50;;;5.97;100.00
9077;BME280;4574;51.072;17.174;2023-02-17T05:27:04;100423.94;;;5.96;100.00
9077;BME280;4574;51.072;17.174;2023-02-17T05:29:33;100417.91;;;5.94;100.00
9077;BME280;4574;51.072;17.174;2023-02-17T05:32:02;100417.81;;;5.96;100.00
9077;BME280;4574;51.072;17.174;2023-02-17T05:34:30;100419.50;;;5.97;100.00
9077;BME280;4574;51.072;17.174;2023-02-17T05:36:59;100419.50;;;5.97;100.00
9077;BME280;4574;51.072;17.174;2023-02-17T05:39:29;100413.19;;;5.99;100.00
9077;BME280;4574;51.072;17.174;2023-02-17T05:41:58;100412.47;;;5.97;100.00
9077;BME280;4574;51.072;17.174;2023-02-17T05:44:26;100403.50;;;6.00;100.00
9077;BME280;4574;51.072;17.174;2023-02-17T05:46:55;100403.28;;;6.03;100.00
9077;BME280;4574;51.072;17.174;2023-02-17T05:49:23;100406.63;;;6.05;100.00
9077;BME280;4574;51.072;17.174;2023-02-17T05:51:52;100398.03;;;6.03;100.00
9077;BME280;4574;51.072;17.174;2023-02-17T05:54:20;100396.84;;;6.07;100.00
9077;BME280;4574;51.072;17.174;2023-02-17T05:56:50;100374.97;;;5.95;100.00
9077;BME280;4574;51.072;17.174;2023-02-17T05:59:19;100398.28;;;6.11;100.00
9077;BME280;4574;51.072;17.174;2023-02-17T06:01:47;100388.72;;;6.10;100.00
9077;BME280;4574;51.072;17.174;2023-02-17T06:04:16;100387.56;;;6.14;100.00
9077;BME280;4574;51.072;17.174;2023-02-17T06:06:44;100383.00;;;6.16;100.00
9077;BME280;4574;51.072;17.174;2023-02-17T06:09:13;100388.03;;;6.19;100.00
9077;BME280;4574;51.072;17.174;2023-02-17T06:11:41;100393.06;;;6.22;100.00
9077;BME280;4574;51.072;17.174;2023-02-17T06:14:11;100393.78;;;6.24;100.00
9077;BME280;4574;51.072;17.174;2023-02-17T06:16:39;100398.81;;;6.27;100.00
9077;BME280;4574;51.072;17.174;2023-02-17T06:19:08;100397.16;;;6.26;100.00
9077;BME280;4574;51.072;17.174;2023-02-17T06:21:36;100404.22;;;6.25;100.00
9077;BME280;4574;51.072;17.174;2023-02-17T06:24:05;100404.06;;;6.27;100.00
9077;BME280;4574;51.072;17.174;2023-02-17T06:26:33;100394.50;;;6.26;100.00
9077;BME280;4574;51.072;17.174;2023-02-17T06:29:02;100409.22;;;6.28;100.00
9077;BME280;4574;51.072;17.174;2023-02-17T06:31:32;100406.47;;;6.30;100.00
9077;BME280;4574;51.072;17.174;2023-02-17T06:34:00;100417.84;;;6.30;100.00
9077;BME280;4574;51.072;17.174;2023-02-17T06:36:32;100406.69;;;6.27;100.00
9077;BME280;4574;51.072;17.174;2023-02-17T06:39:01;100406.69;;;6.27;100.00
9077;BME280;4574;51.072;17.174;2023-02-17T06:41:30;100411.00;;;6.28;100.00
9077;BME280;4574;51.072;17.174;2023-02-17T06:43:58;100405.75;;;6.28;100.00
9077;BME280;4574;51.072;17.174;2023-02-17T06:46:27;100411.13;;;6.26;100.00
9077;BME280;4574;51.072;17.174;2023-02-17T06:48:57;100390.91;;;6.16;100.00
9077;BME280;4574;51.072;17.174;2023-02-17T06:51:26;100398.81;;;6.27;100.00
9077;BME280;4574;51.072;17.174;2023-02-17T06:53:54;100402.16;;;6.29;100.00
9077;BME280;4574;51.072;17.174;2023-02-17T06:56:23;100395.13;;;6.29;100.00
9077;BME280;4574;51.072;17.174;2023-02-17T06:58:51;100393.31;;;6.30;100.00
9077;BME280;4574;51.072;17.174;2023-02-17T07:01:21;100385.94;;;6.35;100.00
9077;BME280;4574;51.072;17.174;2023-02-17T07:03:52;100392.88;;;6.36;100.00
9077;BME280;4574;51.072;17.174;2023-02-17T07:06:23;100390.13;;;6.37;100.00
9077;BME280;4574;51.072;17.174;2023-02-17T07:08:52;100386.41;;;6.40;100.00
9077;BME280;4574;51.072;17.174;2023-02-17T07:11:21;100393.13;;;6.44;100.00
9077;BME280;4574;51.072;17.174;2023-02-17T07:13:49;100395.66;;;6.45;100.00
9077;BME280;4574;51.072;17.174;2023-02-17T07:16:18;100401.50;;;6.49;100.00
9077;BME280;4574;51.072;17.174;2023-02-17T07:18:46;100399.00;;;6.47;100.00
9077;BME280;4574;51.072;17.174;2023-02-17T07:21:15;100401.03;;;6.55;100.00
9077;BME280;4574;51.072;17.174;2023-02-17T07:23:45;100398.78;;;6.61;100.00
9077;BME280;4574;51.072;17.174;2023-02-17T07:26:14;100399.38;;;6.64;100.00
9077;BME280;4574;51.072;17.174;2023-02-17T07:28:43;100401.66;;;6.69;100.00
9077;BME280;4574;51.072;17.174;2023-02-17T07:31:13;100400.47;;;6.73;100.00
9077;BME280;4574;51.072;17.174;2023-02-17T07:33:42;100393.88;;;6.78;100.00
9077;BME280;4574;51.072;17.174;2023-02-17T07:36:15;100399.16;;;6.78;100.00
9077;BME280;4574;51.072;17.174;2023-02-17T07:38:45;100382.53;;;6.78;100.00
9077;BME280;4574;51.072;17.174;2023-02-17T07:41:15;100378.84;;;6.80;100.00
9077;BME280;4574;51.072;17.174;2023-02-17T07:43:44;100375.47;;;6.78;100.00
9077;BME280;4574;51.072;17.174;2023-02-17T07:46:14;100370.22;;;6.78;100.00
9077;BME280;4574;51.072;17.174;2023-02-17T07:48:42;100374.31;;;6.82;100.00
9077;BME280;4574;51.072;17.174;2023-02-17T07:51:12;100367.13;;;6.84;100.00
9077;BME280;4574;51.072;17.174;2023-02-17T07:53:41;100364.97;;;6.89;100.00
9077;BME280;4574;51.072;17.174;2023-02-17T07:56:12;100370.72;;;6.94;100.00
9077;BME280;4574;51.072;17.174;2023-02-17T07:58:43;100356.13;;;6.90;100.00
9077;BME280;4574;51.072;17.174;2023-02-17T08:01:14;100365.06;;;6.99;100.00
9077;BME280;4574;51.072;17.174;2023-02-17T08:03:43;100342.97;;;6.90;100.00
9077;BME280;4574;51.072;17.174;2023-02-17T08:06:13;100359.00;;;6.98;100.00
9077;BME280;4574;51.072;17.174;2023-02-17T08:08:42;100362.91;;;7.04;100.00
9077;BME280;4574;51.072;17.174;2023-02-17T08:11:29;100358.25;;;7.07;100.00
9077;BME280;4574;51.072;17.174;2023-02-17T08:14:16;100359.44;;;7.14;100.00
9077;BME280;4574;51.072;17.174;2023-02-17T08:16:45;100357.41;;;7.18;100.00
9077;BME280;4574;51.072;17.174;2023-02-17T08:19:13;100350.34;;;7.18;100.00
9077;BME280;4574;51.072;17.174;2023-02-17T08:21:42;100342.81;;;7.14;100.00
9077;BME280;4574;51.072;17.174;2023-02-17T08:24:11;100350.09;;;7.21;100.00
9077;BME280;4574;51.072;17.174;2023-02-17T08:26:41;100351.53;;;7.25;100.00
9077;BME280;4574;51.072;17.174;2023-02-17T08:29:09;100338.16;;;7.17;100.00
9077;BME280;4574;51.072;17.174;2023-02-17T08:31:38;100348.50;;;7.30;100.00
9077;BME280;4574;51.072;17.174;2023-02-17T08:34:10;100338.69;;;7.32;100.00
9077;BME280;4574;51.072;17.174;2023-02-17T08:36:39;100352.47;;;7.35;100.00
9077;BME280;4574;51.072;17.174;2023-02-17T08:39:10;100346.97;;;7.38;100.00
9077;BME280;4574;51.072;17.174;2023-02-17T08:41:41;100347.66;;;7.40;100.00
9077;BME280;4574;51.072;17.174;2023-02-17T08:44:12;100353.25;;;7.47;100.00
9077;BME280;4574;51.072;17.174;2023-02-17T08:46:41;100347.88;;;7.48;100.00
9077;BME280;4574;51.072;17.174;2023-02-17T08:49:10;100335.44;;;7.50;100.00
9077;BME280;4574;51.072;17.174;2023-02-17T08:51:39;100329.78;;;7.55;100.00
9077;BME280;4574;51.072;17.174;2023-02-17T08:54:08;100329.41;;;7.59;100.00
9077;BME280;4574;51.072;17.174;2023-02-17T08:56:40;100334.19;;;7.65;100.00
9077;BME280;4574;51.072;17.174;2023-02-17T08:59:10;100332.25;;;7.67;100.00
9077;BME280;4574;51.072;17.174;2023-02-17T09:01:39;100331.75;;;7.73;100.00
9077;BME280;4574;51.072;17.174;2023-02-17T09:04:10;100329.81;;;7.75;100.00
9077;BME280;4574;51.072;17.174;2023-02-17T09:06:41;100334.84;;;7.78;100.00
9077;BME280;4574;51.072;17.174;2023-02-17T09:09:12;100325.97;;;7.79;100.00
9077;BME280;4574;51.072;17.174;2023-02-17T09:11:42;100328.50;;;7.81;100.00
9077;BME280;4574;51.072;17.174;2023-02-17T09:14:11;100330.16;;;7.82;100.00
9077;BME280;4574;51.072;17.174;2023-02-17T09:16:39;100332.66;;;7.83;100.00
9077;BME280;4574;51.072;17.174;2023-02-17T09:19:08;100312.09;;;7.77;100.00
9077;BME280;4574;51.072;17.174;2023-02-17T09:21:36;100335.75;;;7.88;100.00
9077;BME280;4574;51.072;17.174;2023-02-17T09:24:05;100338.28;;;7.90;100.00
9077;BME280;4574;51.072;17.174;2023-02-17T09:26:34;100345.69;;;7.95;100.00
9077;BME280;4574;51.072;17.174;2023-02-17T09:29:04;100333.31;;;7.96;100.00
9077;BME280;4574;51.072;17.174;2023-02-17T09:31:34;100333.66;;;8.02;100.00
9077;BME280;4574;51.072;17.174;2023-02-17T09:34:03;100330.63;;;8.07;100.00
9077;BME280;4574;51.072;17.174;2023-02-17T09:36:36;100333.00;;;8.10;100.00
9077;BME280;4574;51.072;17.174;2023-02-17T09:39:05;100324.00;;;8.12;100.00
9077;BME280;4574;51.072;17.174;2023-02-17T09:41:37;100321.00;;;8.17;100.00
9077;BME280;4574;51.072;17.174;2023-02-17T09:44:16;100314.78;;;8.18;100.00
9077;BME280;4574;51.072;17.174;2023-02-17T09:46:54;100306.50;;;8.22;100.00
9077;BME280;4574;51.072;17.174;2023-02-17T09:49:34;100306.94;;;8.27;100.00
9077;BME280;4574;51.072;17.174;2023-02-17T09:52:08;100303.34;;;8.28;100.00
9077;BME280;4574;51.072;17.174;2023-02-17T09:54:45;100306.25;;;8.35;100.00
9077;BME280;4574;51.072;17.174;2023-02-17T09:57:18;100300.63;;;8.39;100.00
9077;BME280;4574;51.072;17.174;2023-02-17T09:59:51;100301.31;;;8.41;100.00
9077;BME280;4574;51.072;17.174;2023-02-17T10:02:26;100295.91;;;8.43;100.00
9077;BME280;4574;51.072;17.174;2023-02-17T10:05:02;100293.97;;;8.45;100.00
9077;BME280;4574;51.072;17.174;2023-02-17T10:07:35;100292.56;;;8.41;100.00
9077;BME280;4574;51.072;17.174;2023-02-17T10:10:09;100296.50;;;8.46;100.00
9077;BME280;4574;51.072;17.174;2023-02-17T10:12:43;100293.47;;;8.51;100.00
9077;BME280;4574;51.072;17.174;2023-02-17T10:15:16;100295.13;;;8.52;100.00
9077;BME280;4574;51.072;17.174;2023-02-17T10:17:50;100284.06;;;8.58;100.00
9077;BME280;4574;51.072;17.174;2023-02-17T10:20:23;100274.06;;;8.61;100.00
9077;BME280;4574;51.072;17.174;2023-02-17T10:22:58;100273.78;;;8.64;100.00
9077;BME280;4574;51.072;17.174;2023-02-17T10:25:43;100265.19;;;8.62;100.00
9077;BME280;4574;51.072;17.174;2023-02-17T10:28:17;100262.97;;;8.67;100.00
9077;BME280;4574;51.072;17.174;2023-02-17T10:30:57;100261.03;;;8.69;100.00
9077;BME280;4574;51.072;17.174;2023-02-17T10:33:34;100255.50;;;8.72;100.00
9077;BME280;4574;51.072;17.174;2023-02-17T10:36:11;100251.06;;;8.73;100.00
9077;BME280;4574;51.072;17.174;2023-02-17T10:38:49;100249.13;;;8.75;100.00
9077;BME280;4574;51.072;17.174;2023-02-17T10:41:20;100247.19;;;8.77;100.00
9077;BME280;4574;51.072;17.174;2023-02-17T10:43:50;100244.53;;;8.77;100.00
9077;BME280;4574;51.072;17.174;2023-02-17T10:46:26;100242.59;;;8.79;100.00
9077;BME280;4574;51.072;17.174;2023-02-17T10:48:56;100245.25;;;8.79;100.00
9077;BME280;4574;51.072;17.174;2023-02-17T10:51:28;100239.00;;;8.80;100.00
9077;BME280;4574;51.072;17.174;2023-02-17T10:54:01;100240.66;;;8.81;100.00
9077;BME280;4574;51.072;17.174;2023-02-17T10:56:34;100222.03;;;8.82;100.00
9077;BME280;4574;51.072;17.174;2023-02-17T10:59:06;100210.66;;;8.82;100.00
9077;BME280;4574;51.072;17.174;2023-02-17T11:01:40;100199.13;;;8.83;100.00
9077;BME280;4574;51.072;17.174;2023-02-17T11:04:10;100194.28;;;8.88;100.00
9077;BME280;4574;51.072;17.174;2023-02-17T11:06:41;100199.41;;;8.89;100.00
9077;BME280;4574;51.072;17.174;2023-02-17T11:09:19;100187.19;;;8.88;100.00
9077;BME280;4574;51.072;17.174;2023-02-17T11:11:56;100183.28;;;8.92;100.00
9077;BME280;4574;51.072;17.174;2023-02-17T11:14:27;100186.22;;;8.99;100.00
9077;BME280;4574;51.072;17.174;2023-02-17T11:17:00;100178.03;;;9.02;100.00
9077;BME280;4574;51.072;17.174;2023-02-17T11:19:31;100171.78;;;9.03;100.00
9077;BME280;4574;51.072;17.174;2023-02-17T11:22:02;100167.19;;;9.05;100.00
9077;BME280;4574;51.072;17.174;2023-02-17T11:24:33;100164.28;;;9.08;100.00
9077;BME280;4574;51.072;17.174;2023-02-17T11:27:04;100159.41;;;9.13;100.00
9077;BME280;4574;51.072;17.174;2023-02-17T11:29:35;100160.81;;;9.17;100.00
9077;BME280;4574;51.072;17.174;2023-02-17T11:32:09;100150.94;;;9.19;100.00
9077;BME280;4574;51.072;17.174;2023-02-17T11:34:40;100151.34;;;9.24;100.00
9077;BME280;4574;51.072;17.174;2023-02-17T11:37:19;100156.34;;;9.27;100.00
9077;BME280;4574;51.072;17.174;2023-02-17T11:39:51;100145.50;;;9.29;100.00
9077;BME280;4574;51.072;17.174;2023-02-17T11:42:21;100132.72;;;9.34;100.00
9077;BME280;4574;51.072;17.174;2023-02-17T11:44:50;100132.44;;;9.37;100.00
9077;BME280;4574;51.072;17.174;2023-02-17T11:47:28;100122.97;;;9.35;100.00
9077;BME280;4574;51.072;17.174;2023-02-17T11:50:16;100122.97;;;9.44;100.00
9077;BME280;4574;51.072;17.174;2023-02-17T11:53:14;100108.22;;;9.51;100.00
9077;BME280;4574;51.072;17.174;2023-02-17T11:55:53;100107.78;;;9.56;100.00
9077;BME280;4574;51.072;17.174;2023-02-17T11:58:48;100100.13;;;9.62;100.00
9077;BME280;4574;51.072;17.174;2023-02-17T12:01:34;100096.47;;;9.73;100.00
9077;BME280;4574;51.072;17.174;2023-02-17T12:04:25;100086.44;;;9.76;100.00
9077;BME280;4574;51.072;17.174;2023-02-17T12:07:14;100079.47;;;9.85;100.00
9077;BME280;4574;51.072;17.174;2023-02-17T12:09:52;100065.50;;;9.92;100.00
9077;BME280;4574;51.072;17.174;2023-02-17T12:12:31;100063.25;;;9.97;100.00
9077;BME280;4574;51.072;17.174;2023-02-17T12:15:13;100055.72;;;10.02;100.00
9077;BME280;4574;51.072;17.174;2023-02-17T12:17:52;100053.47;;;10.07;100.00
9077;BME280;4574;51.072;17.174;2023-02-17T12:20:37;100043.44;;;10.11;100.00
9077;BME280;4574;51.072;17.174;2023-02-17T12:23:17;100039.53;;;10.15;100.00
9077;BME280;4574;51.072;17.174;2023-02-17T12:25:55;100033.09;;;10.17;100.00
9077;BME280;4574;51.072;17.174;2023-02-17T12:28:50;100047.00;;;10.19;100.00
9077;BME280;4574;51.072;17.174;2023-02-17T12:31:37;100034.50;;;10.21;100.00
9077;BME280;4574;51.072;17.174;2023-02-17T12:34:16;100029.72;;;10.25;100.00
9077;BME280;4574;51.072;17.174;2023-02-17T12:36:50;100025.13;;;10.27;100.00
9077;BME280;4574;51.072;17.174;2023-02-17T12:39:21;100025.28;;;10.25;100.00
9077;BME280;4574;51.072;17.174;2023-02-17T12:41:55;100012.06;;;10.25;100.00
9077;BME280;4574;51.072;17.174;2023-02-17T12:44:28;100015.06;;;10.30;100.00
9077;BME280;4574;51.072;17.174;2023-02-17T12:47:01;100023.00;;;10.30;100.00
9077;BME280;4574;51.072;17.174;2023-02-17T12:49:36;100009.25;;;10.27;100.00
9077;BME280;4574;51.072;17.174;2023-02-17T12:52:13;100002.97;;;10.28;100.00
9077;BME280;4574;51.072;17.174;2023-02-17T12:54:48;99999.50;;;10.27;100.00
9077;BME280;4574;51.072;17.174;2023-02-17T12:57:21;99981.28;;;10.24;100.00
9077;BME280;4574;51.072;17.174;2023-02-17T12:59:51;99981.97;;;10.26;100.00
9077;BME280;4574;51.072;17.174;2023-02-17T13:02:22;99986.59;;;10.24;100.00
9077;BME280;4574;51.072;17.174;2023-02-17T13:04:53;99977.66;;;10.25;100.00
9077;BME280;4574;51.072;17.174;2023-02-17T13:07:34;99987.94;;;10.28;100.00
9077;BME280;4574;51.072;17.174;2023-02-17T13:10:06;99988.94;;;10.27;100.00
9077;BME280;4574;51.072;17.174;2023-02-17T13:12:56;99965.25;;;10.26;100.00
9077;BME280;4574;51.072;17.174;2023-02-17T13:15:35;99966.22;;;10.25;100.00
9077;BME280;4574;51.072;17.174;2023-02-17T13:18:09;99954.28;;;10.21;100.00
9077;BME280;4574;51.072;17.174;2023-02-17T13:20:51;99953.75;;;10.17;100.00
9077;BME280;4574;51.072;17.174;2023-02-17T13:23:31;99955.03;;;10.13;100.00